Latest Coastal Weather Observations for Noarlunga

IDS60701

Issued at 4:11 pm CST Monday 3 August 2015 (issued every 10 minutes, with the page automatically refreshed every 10 minutes)

About coastal observations | Map of coastal stations | Coastal observations for SA | Marine services | Other Formats
Station Details ID: 023885 Name: NOARLUNGA Lat: -35.16 Lon: 138.51 Height: 55.0 m
Data from the previous 72 hours. | See also: Recent months at Noarlunga
Date/Time
CST
Temp

°C
Wind Pressure Rain
since 9am
mm
Weather Cloud Vis
km
Sea
Height
m
Swell
Dir
 
Speed
knots
Gust
knots
hPa Trend Height
m
Period
s
Dir
03/04:00pm 11.1 SW 6 8 - - 0.2 - - - - - - -
03/03:30pm 11.3 SW 7 13 - - 0.2 - - - - - - -
03/03:00pm 11.4 SSW 9 14 - - 0.2 - - - - - - -
03/02:30pm 11.8 SW 8 12 - - 0.2 - - - - - - -
03/02:00pm 12.9 W 10 16 - - 0.2 - - - - - - -
03/01:30pm 12.7 WSW 9 15 - - 0.2 - - - - - - -
03/01:00pm 12.6 WSW 9 15 - - 0.2 - - - - - - -
03/12:30pm 12.3 SW 9 15 - - 0.2 - - - - - - -
03/12:00pm 12.2 SW 7 12 - - 0.2 Recent precip. - - - - - -
03/11:30am 10.7 SSW 7 12 - - 0.2 - - - - - - -
03/11:00am 11.9 WSW 11 16 - - 0.0 - - - - - - -
03/10:30am 11.7 WSW 10 15 - - 0.0 - - - - - - -
03/10:00am 11.0 SW 5 10 - - 0.0 - - - - - - -
03/09:30am 10.8 SW 10 23 - - 0.0 - - - - - - -
03/09:00am 10.7 SW 9 15 - - 1.6 - - - - - - -
03/08:30am 9.8 SW 12 18 - - 1.6 - - - - - - -
03/08:00am 10.5 SW 8 14 - - 1.6 - - - - - - -
03/07:30am 10.1 SW 6 13 - - 1.6 - - - - - - -
03/07:00am 10.4 WSW 10 16 - - 1.6 - - - - - - -
03/06:30am 10.4 WSW 11 19 - - 1.6 - - - - - - -
03/06:00am 9.8 WSW 13 22 - - 1.6 Rain - - - - - -
03/05:50am 10.4 WSW 15 27 - - 1.4 - - - - - - -
03/05:30am 11.1 WSW 12 19 - - 1.4 - - - - - - -
03/05:00am 11.4 WSW 12 21 - - 1.4 - - - - - - -
03/04:30am 11.3 W 11 18 - - 1.4 - - - - - - -
03/04:00am 11.6 WSW 10 15 - - 1.4 - - - - - - -
03/03:30am 11.0 WSW 11 16 - - 1.4 - - - - - - -
03/03:00am 10.9 WSW 14 24 - - 1.4 - - - - - - -
03/02:30am 11.1 WSW 10 18 - - 1.4 - - - - - - -
03/02:00am 11.2 WSW 11 17 - - 1.4 - - - - - - -
03/01:30am 10.9 W 10 14 - - 1.4 - - - - - - -
03/01:00am 11.3 W 10 18 - - 1.0 - - - - - - -
03/12:30am 11.3 W 7 11 - - 0.4 - - - - - - -
03/12:00am 11.1 W 8 13 - - 0.4 Recent precip. - - - - - -
 
Date/Time
CST
Temp

°C
Wind Pressure Rain
since 9am
mm
Weather Cloud Vis
km
Sea
Height
m
Swell
Dir
 
Speed
knots
Gust
knots
hPa Trend Height
m
Period
s
Dir
02/11:30pm 10.7 W 14 27 - - 0.4 - - - - - - -
02/11:00pm 11.5 WNW 11 18 - - 0.2 - - - - - - -
02/10:30pm 11.7 WNW 9 13 - - 0.0 - - - - - - -
02/10:00pm 12.0 W 10 15 - - 0.0 - - - - - - -
02/09:30pm 12.2 W 9 15 - - 0.0 - - - - - - -
02/09:00pm 12.2 W 9 16 - - 0.0 - - - - - - -
02/08:30pm 12.1 W 9 14 - - 0.0 - - - - - - -
02/08:00pm 12.1 WSW 10 14 - - 0.0 - - - - - - -
02/07:30pm 12.2 WSW 13 20 - - 0.0 - - - - - - -
02/07:00pm 12.1 W 13 21 - - 0.0 - - - - - - -
02/06:30pm 12.2 W 12 18 - - 0.0 - - - - - - -
02/06:00pm 11.6 WNW 9 15 - - 0.0 - - - - - - -
02/05:30pm 11.6 WNW 13 20 - - 0.0 - - - - - - -
02/05:00pm 12.5 W 12 18 - - 0.0 - - - - - - -
02/04:30pm 12.3 WNW 13 19 - - 0.0 - - - - - - -
02/04:00pm 13.2 WNW 12 20 - - 0.0 - - - - - - -
02/03:30pm 13.5 WNW 13 19 - - 0.0 - - - - - - -
02/03:00pm 13.2 WNW 13 19 - - 0.0 - - - - - - -
02/02:30pm 13.1 WNW 12 18 - - 0.0 - - - - - - -
02/02:00pm 11.9 W 11 18 - - 0.0 - - - - - - -
02/01:30pm 13.2 WNW 12 18 - - 0.0 - - - - - - -
02/01:00pm 13.4 WNW 13 21 - - 0.0 - - - - - - -
02/12:30pm 12.1 WNW 13 21 - - 0.0 - - - - - - -
02/12:00pm 12.4 WNW 11 18 - - 0.0 - - - - - - -
02/11:30am 12.2 WNW 11 19 - - 0.0 - - - - - - -
02/11:00am 11.5 WNW 10 16 - - 0.0 - - - - - - -
02/10:30am 10.8 WNW 11 17 - - 0.0 - - - - - - -
02/10:00am 11.2 WNW 11 19 - - 0.0 - - - - - - -
02/09:30am 10.8 WNW 10 16 - - 0.0 - - - - - - -
02/09:00am 11.4 WNW 9 15 - - 2.4 - - - - - - -
02/08:30am 10.5 NW 8 13 - - 2.4 - - - - - - -
02/08:00am 9.6 NW 6 8 - - 2.4 - - - - - - -
02/07:30am 9.3 NW 8 13 - - 2.4 - - - - - - -
02/07:00am 9.5 WNW 6 9 - - 2.4 - - - - - - -
02/06:30am 9.5 WNW 6 9 - - 2.4 - - - - - - -
02/06:00am 9.4 WNW 6 9 - - 2.4 - - - - - - -
02/05:30am 9.6 WSW 6 9 - - 2.4 - - - - - - -
02/05:00am 9.6 WSW 7 13 - - 2.4 - - - - - - -
02/04:30am 10.0 W 7 11 - - 2.4 - - - - - - -
02/04:00am 9.8 W 6 13 - - 2.4 - - - - - - -
02/03:30am 9.2 W 4 6 - - 2.4 - - - - - - -
02/03:00am 8.2 W 3 4 - - 2.4 - - - - - - -
02/02:30am 8.3 W 2 3 - - 2.4 - - - - - - -
02/02:00am 8.3 W 3 7 - - 2.4 - - - - - - -
02/01:30am 8.7 NNW 5 7 - - 2.4 - - - - - - -
02/01:00am 8.4 NNW 3 5 - - 2.4 - - - - - - -
02/12:30am 8.5 NNW 4 5 - - 2.4 - - - - - - -
02/12:00am 8.2 NNW 3 4 - - 2.4 - - - - - - -
 
Date/Time
CST
Temp

°C
Wind Pressure Rain
since 9am
mm
Weather Cloud Vis
km
Sea
Height
m
Swell
Dir
 
Speed
knots
Gust
knots
hPa Trend Height
m
Period
s
Dir
01/11:30pm 8.2 NNW 3 3 - - 2.4 - - - - - - -
01/11:00pm 8.2 NNE 3 4 - - 2.4 - - - - - - -
01/10:30pm 8.1 ESE 2 3 - - 2.4 - - - - - - -
01/10:00pm 8.4 SSW 2 2 - - 2.2 - - - - - - -
01/09:30pm 8.5 ENE 1 2 - - 2.2 - - - - - - -
01/09:00pm 8.5 ENE 1 2 - - 2.0 Recent precip. - - - - - -
01/08:30pm 8.5 ENE 3 5 - - 1.8 - - - - - - -
01/08:00pm 8.7 ENE 3 4 - - 1.2 - - - - - - -
01/07:30pm 8.8 ESE 3 4 - - 0.6 - - - - - - -
01/07:00pm 9.1 WSW 2 3 - - 0.4 - - - - - - -
01/06:30pm 9.4 E 5 9 - - 0.2 - - - - - - -
01/06:00pm 9.4 E 5 7 - - 0.2 - - - - - - -
01/05:30pm 9.6 SE 4 6 - - 0.2 - - - - - - -
01/05:00pm 9.8 SE 2 3 - - 0.2 - - - - - - -
01/04:30pm 10.1 SSW 3 6 - - 0.2 - - - - - - -
01/04:00pm 10.3 SE 2 3 - - 0.2 - - - - - - -
01/03:30pm 10.3 SE 7 10 - - 0.2 - - - - - - -
01/03:00pm 10.5 ESE 3 5 - - 0.2 - - - - - - -
01/02:30pm 10.6 E 4 9 - - 0.2 - - - - - - -
01/02:00pm 10.7 ESE 7 10 - - 0.2 - - - - - - -
01/01:30pm 10.4 SSE 6 8 - - 0.2 - - - - - - -
01/01:00pm 11.2 WSW 4 7 - - 0.2 - - - - - - -
01/12:30pm 11.1 SE 4 7 - - 0.2 - - - - - - -
01/12:00pm 11.0 NW 1 2 - - 0.0 - - - - - - -
01/11:30am 11.1 S 1 3 - - 0.0 - - - - - - -
01/11:00am 11.1 ESE 3 5 - - 0.0 - - - - - - -
01/10:30am 10.8 ESE 2 4 - - 0.0 - - - - - - -
01/10:00am 10.5 E 4 5 - - 0.0 - - - - - - -
01/09:30am 10.4 ESE 2 3 - - 0.0 - - - - - - -
01/09:00am 10.4 S 7 9 - - 3.6 - - - - - - -
01/08:30am 10.4 SSW 6 9 - - 3.6 - - - - - - -
01/08:00am 10.4 SSE 3 4 - - 3.6 - - - - - - -
01/07:30am 10.5 S 3 4 - - 3.6 - - - - - - -
01/07:00am 10.6 S 3 5 - - 3.2 - - - - - - -
01/06:30am 10.8 SSW 4 6 - - 3.2 - - - - - - -
01/06:00am 10.9 S 2 3 - - 3.0 Rain - - - - - -
01/05:30am 11.0 SSW 4 6 - - 2.8 - - - - - - -
01/05:00am 11.1 SW 6 9 - - 2.8 - - - - - - -
01/04:30am 10.9 SW 9 15 - - 2.8 - - - - - - -
01/04:00am 11.1 SW 10 15 - - 2.8 - - - - - - -
01/03:30am 12.6 N 10 17 - - 0.8 - - - - - - -
01/03:00am 12.6 N 9 13 - - 0.6 Recent precip. - - - - - -
01/02:30am 12.7 N 11 15 - - 0.4 - - - - - - -
01/02:00am 13.1 N 11 17 - - 0.2 - - - - - - -
01/01:30am 12.9 N 12 17 - - 0.2 - - - - - - -
01/01:00am 12.8 N 13 19 - - 0.2 - - - - - - -
01/12:30am 12.9 N 14 20 - - 0.2 - - - - - - -
01/12:00am 12.9 N 14 20 - - 0.2 Recent precip. - - - - - -
 
Date/Time
CST
Temp

°C
Wind Pressure Rain
since 9am
mm
Weather Cloud Vis
km
Sea
Height
m
Swell
Dir
 
Speed
knots
Gust
knots
hPa Trend Height
m
Period
s
Dir
31/11:30pm 12.8 N 13 19 - - 0.2 - - - - - - -
31/11:00pm 13.3 N 12 18 - - 0.0 - - - - - - -
31/10:30pm 13.6 N 13 19 - - 0.0 - - - - - - -
31/10:00pm 14.2 N 11 16 - - 0.0 - - - - - - -
31/09:30pm 14.5 N 10 16 - - 0.0 - - - - - - -
31/09:00pm 14.5 N 10 13 - - 0.0 - - - - - - -
31/08:30pm 14.2 N 9 13 - - 0.0 - - - - - - -
31/08:00pm 13.8 N 8 12 - - 0.0 - - - - - - -
31/07:30pm 13.8 N 8 10 - - 0.0 - - - - - - -
31/07:00pm 13.4 N 7 9 - - 0.0 - - - - - - -
31/06:30pm 13.6 NNW 5 8 - - 0.0 - - - - - - -
31/06:00pm 13.6 NNW 6 8 - - 0.0 - - - - - - -
31/05:30pm 13.6 N 7 10 - - 0.0 - - - - - - -
31/05:00pm 13.8 N 8 12 - - 0.0 - - - - - - -
31/04:30pm 13.7 N 7 11 - - 0.0 - - - - - - -

Other Formats:

Comma delimited format used in spreadsheet applications
http://www.bom.gov.au/fwo/IDS60701/IDS60701.94808.axf

JavaScript Object Notation format (JSON) in row-major order
http://www.bom.gov.au/fwo/IDS60701/IDS60701.94808.json